sensor_id;sensor_type;location;lat;lon;timestamp;P1;durP1;ratioP1;P2;durP2;ratioP2
45792;SDS011;31495;42.740;22.908;2023-03-12T00:00:37;7.20;;;3.80;;
45792;SDS011;31495;42.740;22.908;2023-03-12T00:01:38;10.50;;;3.42;;
45792;SDS011;31495;42.740;22.908;2023-03-12T00:02:38;9.70;;;4.13;;
45792;SDS011;31495;42.740;22.908;2023-03-12T00:03:37;8.68;;;4.25;;
45792;SDS011;31495;42.740;22.908;2023-03-12T00:04:38;11.50;;;5.68;;
45792;SDS011;31495;42.740;22.908;2023-03-12T00:05:40;9.88;;;5.00;;
45792;SDS011;31495;42.740;22.908;2023-03-12T00:06:41;9.68;;;4.72;;
45792;SDS011;31495;42.740;22.908;2023-03-12T00:07:40;10.73;;;5.18;;
45792;SDS011;31495;42.740;22.908;2023-03-12T00:08:40;7.25;;;4.43;;
45792;SDS011;31495;42.740;22.908;2023-03-12T00:09:42;15.02;;;5.07;;
45792;SDS011;31495;42.740;22.908;2023-03-12T00:10:41;7.07;;;4.07;;
45792;SDS011;31495;42.740;22.908;2023-03-12T00:11:41;18.33;;;7.45;;
45792;SDS011;31495;42.740;22.908;2023-03-12T00:12:40;13.27;;;5.93;;
45792;SDS011;31495;42.740;22.908;2023-03-12T00:13:40;7.25;;;3.40;;
45792;SDS011;31495;42.740;22.908;2023-03-12T00:14:40;5.32;;;2.97;;
45792;SDS011;31495;42.740;22.908;2023-03-12T00:15:39;4.07;;;2.35;;
45792;SDS011;31495;42.740;22.908;2023-03-12T00:16:38;4.95;;;2.92;;
45792;SDS011;31495;42.740;22.908;2023-03-12T00:17:38;9.38;;;3.05;;
45792;SDS011;31495;42.740;22.908;2023-03-12T00:18:41;6.75;;;2.72;;
45792;SDS011;31495;42.740;22.908;2023-03-12T00:19:41;9.02;;;2.85;;
45792;SDS011;31495;42.740;22.908;2023-03-12T00:20:41;7.00;;;3.35;;
45792;SDS011;31495;42.740;22.908;2023-03-12T00:21:40;7.53;;;3.88;;
45792;SDS011;31495;42.740;22.908;2023-03-12T00:22:40;7.03;;;2.72;;
45792;SDS011;31495;42.740;22.908;2023-03-12T00:23:39;7.22;;;3.17;;
45792;SDS011;31495;42.740;22.908;2023-03-12T00:24:38;8.32;;;4.13;;
45792;SDS011;31495;42.740;22.908;2023-03-12T00:25:38;6.72;;;3.60;;
45792;SDS011;31495;42.740;22.908;2023-03-12T00:26:38;7.70;;;3.75;;
45792;SDS011;31495;42.740;22.908;2023-03-12T00:27:38;6.43;;;3.42;;
45792;SDS011;31495;42.740;22.908;2023-03-12T00:28:38;8.57;;;3.95;;
45792;SDS011;31495;42.740;22.908;2023-03-12T00:29:38;10.85;;;4.72;;
45792;SDS011;31495;42.740;22.908;2023-03-12T00:30:38;6.28;;;3.47;;
45792;SDS011;31495;42.740;22.908;2023-03-12T00:31:38;10.90;;;3.47;;
45792;SDS011;31495;42.740;22.908;2023-03-12T00:32:37;5.35;;;3.20;;
45792;SDS011;31495;42.740;22.908;2023-03-12T00:33:37;6.60;;;3.17;;
45792;SDS011;31495;42.740;22.908;2023-03-12T00:34:38;9.32;;;2.83;;
45792;SDS011;31495;42.740;22.908;2023-03-12T00:35:44;5.43;;;3.58;;
45792;SDS011;31495;42.740;22.908;2023-03-12T00:36:44;12.25;;;3.45;;
45792;SDS011;31495;42.740;22.908;2023-03-12T00:37:44;11.32;;;3.45;;
45792;SDS011;31495;42.740;22.908;2023-03-12T00:38:44;9.80;;;4.72;;
45792;SDS011;31495;42.740;22.908;2023-03-12T00:39:43;7.22;;;3.95;;
45792;SDS011;31495;42.740;22.908;2023-03-12T00:40:44;5.28;;;3.30;;
45792;SDS011;31495;42.740;22.908;2023-03-12T00:41:47;8.93;;;3.67;;
45792;SDS011;31495;42.740;22.908;2023-03-12T00:43:06;8.30;;;3.45;;
45792;SDS011;31495;42.740;22.908;2023-03-12T00:44:05;5.60;;;2.85;;
45792;SDS011;31495;42.740;22.908;2023-03-12T00:45:05;7.57;;;3.13;;
45792;SDS011;31495;42.740;22.908;2023-03-12T00:46:05;8.75;;;3.67;;
45792;SDS011;31495;42.740;22.908;2023-03-12T00:47:05;7.22;;;4.20;;
45792;SDS011;31495;42.740;22.908;2023-03-12T00:48:05;9.77;;;4.17;;
45792;SDS011;31495;42.740;22.908;2023-03-12T00:49:05;10.20;;;4.22;;
45792;SDS011;31495;42.740;22.908;2023-03-12T00:50:06;7.43;;;3.83;;
45792;SDS011;31495;42.740;22.908;2023-03-12T00:51:07;9.57;;;3.30;;
45792;SDS011;31495;42.740;22.908;2023-03-12T00:52:07;7.63;;;4.10;;
45792;SDS011;31495;42.740;22.908;2023-03-12T00:53:07;8.13;;;3.88;;
45792;SDS011;31495;42.740;22.908;2023-03-12T00:54:07;12.38;;;4.25;;
45792;SDS011;31495;42.740;22.908;2023-03-12T00:55:07;8.73;;;4.70;;
45792;SDS011;31495;42.740;22.908;2023-03-12T00:56:07;12.15;;;4.57;;
45792;SDS011;31495;42.740;22.908;2023-03-12T00:57:10;6.25;;;3.58;;
45792;SDS011;31495;42.740;22.908;2023-03-12T00:58:09;9.68;;;4.05;;
45792;SDS011;31495;42.740;22.908;2023-03-12T00:59:09;8.20;;;3.58;;
45792;SDS011;31495;42.740;22.908;2023-03-12T01:00:27;5.53;;;3.30;;
45792;SDS011;31495;42.740;22.908;2023-03-12T01:01:28;15.73;;;3.20;;
45792;SDS011;31495;42.740;22.908;2023-03-12T01:02:28;8.57;;;3.88;;
45792;SDS011;31495;42.740;22.908;2023-03-12T01:03:27;6.78;;;3.33;;
45792;SDS011;31495;42.740;22.908;2023-03-12T01:04:28;9.18;;;3.42;;
45792;SDS011;31495;42.740;22.908;2023-03-12T01:05:27;5.47;;;3.20;;
45792;SDS011;31495;42.740;22.908;2023-03-12T01:06:27;10.00;;;4.43;;
45792;SDS011;31495;42.740;22.908;2023-03-12T01:07:27;14.32;;;7.40;;
45792;SDS011;31495;42.740;22.908;2023-03-12T01:08:26;6.18;;;3.30;;
45792;SDS011;31495;42.740;22.908;2023-03-12T01:09:29;6.60;;;3.47;;
45792;SDS011;31495;42.740;22.908;2023-03-12T01:10:29;7.43;;;4.18;;
45792;SDS011;31495;42.740;22.908;2023-03-12T01:11:29;6.50;;;3.47;;
45792;SDS011;31495;42.740;22.908;2023-03-12T01:12:31;7.10;;;3.63;;
45792;SDS011;31495;42.740;22.908;2023-03-12T01:13:32;8.50;;;3.47;;
45792;SDS011;31495;42.740;22.908;2023-03-12T01:14:31;6.88;;;2.92;;
45792;SDS011;31495;42.740;22.908;2023-03-12T01:15:32;6.07;;;4.03;;
45792;SDS011;31495;42.740;22.908;2023-03-12T01:16:31;5.95;;;3.28;;
45792;SDS011;31495;42.740;22.908;2023-03-12T01:17:32;8.27;;;3.60;;
45792;SDS011;31495;42.740;22.908;2023-03-12T01:18:31;8.13;;;3.20;;
45792;SDS011;31495;42.740;22.908;2023-03-12T01:19:31;6.00;;;3.53;;
45792;SDS011;31495;42.740;22.908;2023-03-12T01:20:34;5.35;;;3.22;;
45792;SDS011;31495;42.740;22.908;2023-03-12T01:21:34;5.72;;;2.70;;
45792;SDS011;31495;42.740;22.908;2023-03-12T01:22:38;4.00;;;2.83;;
45792;SDS011;31495;42.740;22.908;2023-03-12T01:23:37;7.82;;;3.42;;
45792;SDS011;31495;42.740;22.908;2023-03-12T01:24:37;6.47;;;3.10;;
45792;SDS011;31495;42.740;22.908;2023-03-12T01:25:36;8.32;;;3.40;;
45792;SDS011;31495;42.740;22.908;2023-03-12T01:26:36;12.55;;;4.18;;
45792;SDS011;31495;42.740;22.908;2023-03-12T01:27:36;7.45;;;3.85;;
45792;SDS011;31495;42.740;22.908;2023-03-12T01:28:36;7.78;;;3.90;;
45792;SDS011;31495;42.740;22.908;2023-03-12T01:29:37;5.45;;;3.30;;
45792;SDS011;31495;42.740;22.908;2023-03-12T01:30:40;6.63;;;3.70;;
45792;SDS011;31495;42.740;22.908;2023-03-12T01:31:44;8.52;;;4.35;;
45792;SDS011;31495;42.740;22.908;2023-03-12T01:32:57;11.52;;;4.10;;
45792;SDS011;31495;42.740;22.908;2023-03-12T01:33:57;5.55;;;3.35;;
45792;SDS011;31495;42.740;22.908;2023-03-12T01:34:57;8.70;;;3.92;;
45792;SDS011;31495;42.740;22.908;2023-03-12T01:35:58;6.25;;;3.85;;
45792;SDS011;31495;42.740;22.908;2023-03-12T01:36:58;9.00;;;3.40;;
45792;SDS011;31495;42.740;22.908;2023-03-12T01:37:57;6.53;;;3.67;;
45792;SDS011;31495;42.740;22.908;2023-03-12T01:38:58;5.65;;;3.17;;
45792;SDS011;31495;42.740;22.908;2023-03-12T01:39:59;12.38;;;4.95;;
45792;SDS011;31495;42.740;22.908;2023-03-12T01:40:59;11.60;;;4.85;;
45792;SDS011;31495;42.740;22.908;2023-03-12T01:41:59;7.53;;;3.40;;
45792;SDS011;31495;42.740;22.908;2023-03-12T01:43:18;5.97;;;3.72;;
45792;SDS011;31495;42.740;22.908;2023-03-12T01:44:23;8.55;;;4.40;;
45792;SDS011;31495;42.740;22.908;2023-03-12T01:47:01;5.93;;;3.72;;
45792;SDS011;31495;42.740;22.908;2023-03-12T01:48:00;7.20;;;4.32;;
45792;SDS011;31495;42.740;22.908;2023-03-12T01:49:02;6.20;;;3.20;;
45792;SDS011;31495;42.740;22.908;2023-03-12T01:50:11;7.10;;;3.63;;
45792;SDS011;31495;42.740;22.908;2023-03-12T01:51:15;6.43;;;4.03;;
45792;SDS011;31495;42.740;22.908;2023-03-12T01:53:27;7.25;;;3.70;;
45792;SDS011;31495;42.740;22.908;2023-03-12T01:55:34;10.48;;;4.55;;
45792;SDS011;31495;42.740;22.908;2023-03-12T01:56:33;12.63;;;4.30;;
45792;SDS011;31495;42.740;22.908;2023-03-12T01:58:48;11.82;;;5.00;;
45792;SDS011;31495;42.740;22.908;2023-03-12T02:00:14;8.80;;;4.15;;
45792;SDS011;31495;42.740;22.908;2023-03-12T02:01:15;8.40;;;3.90;;
45792;SDS011;31495;42.740;22.908;2023-03-12T02:02:17;5.30;;;3.28;;
45792;SDS011;31495;42.740;22.908;2023-03-12T02:03:25;6.65;;;3.75;;
45792;SDS011;31495;42.740;22.908;2023-03-12T02:04:25;8.52;;;5.15;;
45792;SDS011;31495;42.740;22.908;2023-03-12T02:05:41;9.65;;;3.80;;
45792;SDS011;31495;42.740;22.908;2023-03-12T02:07:08;6.30;;;3.47;;
45792;SDS011;31495;42.740;22.908;2023-03-12T02:08:08;8.35;;;4.30;;
45792;SDS011;31495;42.740;22.908;2023-03-12T02:09:09;7.78;;;4.15;;
45792;SDS011;31495;42.740;22.908;2023-03-12T02:10:10;6.97;;;3.65;;
45792;SDS011;31495;42.740;22.908;2023-03-12T02:11:10;6.78;;;4.00;;
45792;SDS011;31495;42.740;22.908;2023-03-12T02:12:11;12.68;;;4.47;;
45792;SDS011;31495;42.740;22.908;2023-03-12T02:13:11;7.97;;;4.03;;
45792;SDS011;31495;42.740;22.908;2023-03-12T02:14:11;6.25;;;3.53;;
45792;SDS011;31495;42.740;22.908;2023-03-12T02:15:11;6.72;;;4.05;;
45792;SDS011;31495;42.740;22.908;2023-03-12T02:16:10;7.28;;;3.90;;
45792;SDS011;31495;42.740;22.908;2023-03-12T02:17:10;8.43;;;4.18;;
45792;SDS011;31495;42.740;22.908;2023-03-12T02:18:10;10.70;;;3.83;;
45792;SDS011;31495;42.740;22.908;2023-03-12T02:19:22;6.47;;;4.13;;
45792;SDS011;31495;42.740;22.908;2023-03-12T02:21:59;7.93;;;2.83;;
45792;SDS011;31495;42.740;22.908;2023-03-12T02:23:02;5.85;;;3.33;;
45792;SDS011;31495;42.740;22.908;2023-03-12T02:25:50;6.75;;;3.03;;
45792;SDS011;31495;42.740;22.908;2023-03-12T02:26:52;8.93;;;2.80;;
45792;SDS011;31495;42.740;22.908;2023-03-12T02:27:52;4.03;;;2.67;;
45792;SDS011;31495;42.740;22.908;2023-03-12T02:28:52;8.27;;;3.05;;
45792;SDS011;31495;42.740;22.908;2023-03-12T02:29:53;5.68;;;3.50;;
45792;SDS011;31495;42.740;22.908;2023-03-12T02:30:56;7.28;;;3.97;;
45792;SDS011;31495;42.740;22.908;2023-03-12T02:31:58;6.55;;;3.35;;
45792;SDS011;31495;42.740;22.908;2023-03-12T02:33:01;5.43;;;3.33;;
45792;SDS011;31495;42.740;22.908;2023-03-12T02:34:05;7.15;;;3.47;;
45792;SDS011;31495;42.740;22.908;2023-03-12T02:35:05;8.93;;;3.13;;
45792;SDS011;31495;42.740;22.908;2023-03-12T02:36:05;11.20;;;3.20;;
45792;SDS011;31495;42.740;22.908;2023-03-12T02:37:04;9.23;;;3.40;;
45792;SDS011;31495;42.740;22.908;2023-03-12T02:38:26;5.35;;;3.30;;
45792;SDS011;31495;42.740;22.908;2023-03-12T02:39:30;5.00;;;2.60;;
45792;SDS011;31495;42.740;22.908;2023-03-12T02:40:33;6.28;;;3.33;;
45792;SDS011;31495;42.740;22.908;2023-03-12T02:41:40;9.75;;;4.32;;
45792;SDS011;31495;42.740;22.908;2023-03-12T02:42:43;12.23;;;5.72;;
45792;SDS011;31495;42.740;22.908;2023-03-12T02:43:44;7.80;;;4.43;;
45792;SDS011;31495;42.740;22.908;2023-03-12T02:44:47;7.72;;;3.15;;
45792;SDS011;31495;42.740;22.908;2023-03-12T02:45:46;7.00;;;3.88;;
45792;SDS011;31495;42.740;22.908;2023-03-12T02:46:47;5.18;;;3.95;;
45792;SDS011;31495;42.740;22.908;2023-03-12T02:47:52;10.98;;;4.00;;
45792;SDS011;31495;42.740;22.908;2023-03-12T02:48:51;8.77;;;3.63;;
45792;SDS011;31495;42.740;22.908;2023-03-12T02:49:52;6.43;;;3.38;;
45792;SDS011;31495;42.740;22.908;2023-03-12T02:50:51;6.80;;;3.28;;
45792;SDS011;31495;42.740;22.908;2023-03-12T02:51:50;5.60;;;2.88;;
45792;SDS011;31495;42.740;22.908;2023-03-12T02:52:51;6.90;;;3.78;;
45792;SDS011;31495;42.740;22.908;2023-03-12T02:53:50;5.35;;;3.30;;
45792;SDS011;31495;42.740;22.908;2023-03-12T02:54:53;7.72;;;4.13;;
45792;SDS011;31495;42.740;22.908;2023-03-12T02:55:52;6.75;;;3.78;;
45792;SDS011;31495;42.740;22.908;2023-03-12T02:56:51;5.68;;;3.50;;
45792;SDS011;31495;42.740;22.908;2023-03-12T02:57:51;6.57;;;3.20;;
45792;SDS011;31495;42.740;22.908;2023-03-12T02:58:51;7.20;;;2.67;;
45792;SDS011;31495;42.740;22.908;2023-03-12T02:59:50;4.70;;;2.97;;
45792;SDS011;31495;42.740;22.908;2023-03-12T03:00:50;5.07;;;3.20;;
45792;SDS011;31495;42.740;22.908;2023-03-12T03:01:54;4.55;;;2.67;;
45792;SDS011;31495;42.740;22.908;2023-03-12T03:02:55;11.38;;;3.08;;
45792;SDS011;31495;42.740;22.908;2023-03-12T03:03:54;6.40;;;2.65;;
45792;SDS011;31495;42.740;22.908;2023-03-12T03:04:53;9.15;;;3.75;;
45792;SDS011;31495;42.740;22.908;2023-03-12T03:05:52;4.20;;;3.03;;
45792;SDS011;31495;42.740;22.908;2023-03-12T03:06:52;3.90;;;2.53;;
45792;SDS011;31495;42.740;22.908;2023-03-12T03:07:51;7.68;;;3.50;;
45792;SDS011;31495;42.740;22.908;2023-03-12T03:08:51;3.58;;;2.10;;
45792;SDS011;31495;42.740;22.908;2023-03-12T03:09:51;4.45;;;2.67;;
45792;SDS011;31495;42.740;22.908;2023-03-12T03:10:50;5.07;;;2.67;;
45792;SDS011;31495;42.740;22.908;2023-03-12T03:11:50;5.10;;;3.30;;
45792;SDS011;31495;42.740;22.908;2023-03-12T03:12:50;4.75;;;2.13;;
45792;SDS011;31495;42.740;22.908;2023-03-12T03:13:50;4.78;;;2.10;;
45792;SDS011;31495;42.740;22.908;2023-03-12T03:14:50;4.93;;;2.65;;
45792;SDS011;31495;42.740;22.908;2023-03-12T03:15:49;8.18;;;2.95;;
45792;SDS011;31495;42.740;22.908;2023-03-12T03:16:49;5.30;;;2.88;;
45792;SDS011;31495;42.740;22.908;2023-03-12T03:17:49;6.18;;;2.95;;
45792;SDS011;31495;42.740;22.908;2023-03-12T03:18:48;4.50;;;2.17;;
45792;SDS011;31495;42.740;22.908;2023-03-12T03:19:48;5.53;;;2.72;;
45792;SDS011;31495;42.740;22.908;2023-03-12T03:20:56;5.85;;;2.70;;
45792;SDS011;31495;42.740;22.908;2023-03-12T03:21:56;4.15;;;2.15;;
45792;SDS011;31495;42.740;22.908;2023-03-12T03:22:56;3.97;;;2.28;;
45792;SDS011;31495;42.740;22.908;2023-03-12T03:23:56;4.18;;;1.77;;
45792;SDS011;31495;42.740;22.908;2023-03-12T03:24:55;6.15;;;2.13;;
45792;SDS011;31495;42.740;22.908;2023-03-12T03:25:55;3.88;;;2.08;;
45792;SDS011;31495;42.740;22.908;2023-03-12T03:26:55;6.78;;;2.70;;
45792;SDS011;31495;42.740;22.908;2023-03-12T03:27:54;5.25;;;2.50;;
45792;SDS011;31495;42.740;22.908;2023-03-12T03:28:54;8.13;;;2.58;;
45792;SDS011;31495;42.740;22.908;2023-03-12T03:29:53;5.97;;;2.28;;
45792;SDS011;31495;42.740;22.908;2023-03-12T03:30:53;4.18;;;2.50;;
45792;SDS011;31495;42.740;22.908;2023-03-12T03:31:56;10.00;;;2.70;;
45792;SDS011;31495;42.740;22.908;2023-03-12T03:32:55;5.88;;;2.33;;
45792;SDS011;31495;42.740;22.908;2023-03-12T03:33:55;4.22;;;2.38;;
45792;SDS011;31495;42.740;22.908;2023-03-12T03:34:54;4.70;;;2.47;;
45792;SDS011;31495;42.740;22.908;2023-03-12T03:35:54;6.32;;;2.70;;
45792;SDS011;31495;42.740;22.908;2023-03-12T03:36:54;8.57;;;3.00;;
45792;SDS011;31495;42.740;22.908;2023-03-12T03:37:54;5.13;;;2.90;;
45792;SDS011;31495;42.740;22.908;2023-03-12T03:38:53;5.65;;;3.35;;
45792;SDS011;31495;42.740;22.908;2023-03-12T03:39:53;8.07;;;3.50;;
45792;SDS011;31495;42.740;22.908;2023-03-12T03:40:52;5.53;;;2.63;;
45792;SDS011;31495;42.740;22.908;2023-03-12T03:41:53;5.47;;;2.88;;
45792;SDS011;31495;42.740;22.908;2023-03-12T03:42:52;7.65;;;3.28;;
45792;SDS011;31495;42.740;22.908;2023-03-12T03:43:54;6.18;;;3.65;;
45792;SDS011;31495;42.740;22.908;2023-03-12T03:44:54;7.32;;;3.53;;
45792;SDS011;31495;42.740;22.908;2023-03-12T03:45:58;4.80;;;3.08;;
45792;SDS011;31495;42.740;22.908;2023-03-12T03:47:01;6.20;;;3.30;;
45792;SDS011;31495;42.740;22.908;2023-03-12T03:48:01;6.20;;;3.50;;
45792;SDS011;31495;42.740;22.908;2023-03-12T03:49:01;6.15;;;3.40;;
45792;SDS011;31495;42.740;22.908;2023-03-12T03:50:01;7.60;;;2.90;;
45792;SDS011;31495;42.740;22.908;2023-03-12T03:51:01;5.10;;;2.60;;
45792;SDS011;31495;42.740;22.908;2023-03-12T03:52:01;10.60;;;3.30;;
45792;SDS011;31495;42.740;22.908;2023-03-12T03:53:01;5.22;;;2.67;;
45792;SDS011;31495;42.740;22.908;2023-03-12T03:54:00;9.52;;;2.78;;
45792;SDS011;31495;42.740;22.908;2023-03-12T03:55:00;6.15;;;2.83;;
45792;SDS011;31495;42.740;22.908;2023-03-12T03:56:10;8.52;;;3.50;;
45792;SDS011;31495;42.740;22.908;2023-03-12T03:58:11;5.70;;;2.65;;
45792;SDS011;31495;42.740;22.908;2023-03-12T03:59:11;10.70;;;4.38;;
45792;SDS011;31495;42.740;22.908;2023-03-12T04:00:12;11.70;;;4.20;;
45792;SDS011;31495;42.740;22.908;2023-03-12T04:01:14;11.60;;;5.38;;
45792;SDS011;31495;42.740;22.908;2023-03-12T04:02:14;12.63;;;6.80;;
45792;SDS011;31495;42.740;22.908;2023-03-12T04:03:13;17.90;;;9.80;;
45792;SDS011;31495;42.740;22.908;2023-03-12T04:04:12;11.52;;;6.78;;
45792;SDS011;31495;42.740;22.908;2023-03-12T04:05:12;10.57;;;6.25;;
45792;SDS011;31495;42.740;22.908;2023-03-12T04:06:14;14.57;;;6.68;;
45792;SDS011;31495;42.740;22.908;2023-03-12T04:07:13;12.15;;;7.18;;
45792;SDS011;31495;42.740;22.908;2023-03-12T04:08:12;9.73;;;5.55;;
45792;SDS011;31495;42.740;22.908;2023-03-12T04:09:12;8.35;;;3.65;;
45792;SDS011;31495;42.740;22.908;2023-03-12T04:10:11;7.22;;;3.83;;
45792;SDS011;31495;42.740;22.908;2023-03-12T04:11:12;9.98;;;4.55;;
45792;SDS011;31495;42.740;22.908;2023-03-12T04:12:17;6.22;;;3.10;;
45792;SDS011;31495;42.740;22.908;2023-03-12T04:13:16;9.10;;;4.25;;
45792;SDS011;31495;42.740;22.908;2023-03-12T04:14:16;7.53;;;3.88;;
45792;SDS011;31495;42.740;22.908;2023-03-12T04:15:15;8.68;;;4.22;;
45792;SDS011;31495;42.740;22.908;2023-03-12T04:16:15;7.18;;;3.30;;
45792;SDS011;31495;42.740;22.908;2023-03-12T04:17:15;6.10;;;3.50;;
45792;SDS011;31495;42.740;22.908;2023-03-12T04:18:15;5.60;;;3.30;;
45792;SDS011;31495;42.740;22.908;2023-03-12T04:19:15;8.27;;;3.53;;
45792;SDS011;31495;42.740;22.908;2023-03-12T04:20:15;5.70;;;3.10;;
45792;SDS011;31495;42.740;22.908;2023-03-12T04:21:14;7.43;;;3.08;;
45792;SDS011;31495;42.740;22.908;2023-03-12T04:22:14;12.10;;;4.47;;
45792;SDS011;31495;42.740;22.908;2023-03-12T04:23:13;6.97;;;4.05;;
45792;SDS011;31495;42.740;22.908;2023-03-12T04:24:13;7.40;;;4.20;;
45792;SDS011;31495;42.740;22.908;2023-03-12T04:25:14;11.13;;;3.00;;
45792;SDS011;31495;42.740;22.908;2023-03-12T04:26:14;6.03;;;3.45;;
45792;SDS011;31495;42.740;22.908;2023-03-12T04:27:15;8.63;;;4.05;;
45792;SDS011;31495;42.740;22.908;2023-03-12T04:28:14;6.43;;;3.53;;
45792;SDS011;31495;42.740;22.908;2023-03-12T04:29:14;6.47;;;3.95;;
45792;SDS011;31495;42.740;22.908;2023-03-12T04:30:13;10.70;;;5.50;;
45792;SDS011;31495;42.740;22.908;2023-03-12T04:31:13;11.55;;;6.53;;
45792;SDS011;31495;42.740;22.908;2023-03-12T04:32:13;15.50;;;9.02;;
45792;SDS011;31495;42.740;22.908;2023-03-12T04:33:12;13.57;;;6.85;;
45792;SDS011;31495;42.740;22.908;2023-03-12T04:34:11;10.20;;;6.60;;
45792;SDS011;31495;42.740;22.908;2023-03-12T04:35:11;8.98;;;5.07;;
45792;SDS011;31495;42.740;22.908;2023-03-12T04:36:10;8.68;;;5.40;;
45792;SDS011;31495;42.740;22.908;2023-03-12T04:37:11;9.85;;;6.00;;
45792;SDS011;31495;42.740;22.908;2023-03-12T04:38:13;11.95;;;5.40;;
45792;SDS011;31495;42.740;22.908;2023-03-12T04:39:15;19.17;;;10.57;;
45792;SDS011;31495;42.740;22.908;2023-03-12T04:40:17;17.85;;;9.18;;
45792;SDS011;31495;42.740;22.908;2023-03-12T04:41:18;10.95;;;5.22;;
45792;SDS011;31495;42.740;22.908;2023-03-12T04:42:18;7.70;;;3.88;;
45792;SDS011;31495;42.740;22.908;2023-03-12T04:43:17;5.93;;;3.47;;
45792;SDS011;31495;42.740;22.908;2023-03-12T04:44:19;5.45;;;2.97;;
45792;SDS011;31495;42.740;22.908;2023-03-12T04:45:18;7.35;;;2.58;;
45792;SDS011;31495;42.740;22.908;2023-03-12T04:46:18;6.93;;;2.65;;
45792;SDS011;31495;42.740;22.908;2023-03-12T04:47:18;4.10;;;2.20;;
45792;SDS011;31495;42.740;22.908;2023-03-12T04:48:17;6.53;;;2.75;;
45792;SDS011;31495;42.740;22.908;2023-03-12T04:49:16;6.13;;;2.08;;
45792;SDS011;31495;42.740;22.908;2023-03-12T04:50:16;4.95;;;1.95;;
45792;SDS011;31495;42.740;22.908;2023-03-12T04:51:15;7.13;;;2.20;;
45792;SDS011;31495;42.740;22.908;2023-03-12T04:52:15;4.53;;;2.50;;
45792;SDS011;31495;42.740;22.908;2023-03-12T04:53:16;4.18;;;2.85;;
45792;SDS011;31495;42.740;22.908;2023-03-12T04:54:15;5.50;;;2.38;;
45792;SDS011;31495;42.740;22.908;2023-03-12T04:55:15;4.90;;;3.22;;
45792;SDS011;31495;42.740;22.908;2023-03-12T04:56:15;6.43;;;2.60;;
45792;SDS011;31495;42.740;22.908;2023-03-12T04:57:14;5.55;;;2.83;;
45792;SDS011;31495;42.740;22.908;2023-03-12T04:58:14;8.55;;;3.40;;
45792;SDS011;31495;42.740;22.908;2023-03-12T04:59:14;6.15;;;3.38;;
45792;SDS011;31495;42.740;22.908;2023-03-12T05:00:14;5.20;;;2.17;;
45792;SDS011;31495;42.740;22.908;2023-03-12T05:01:24;6.40;;;2.72;;
45792;SDS011;31495;42.740;22.908;2023-03-12T05:02:29;4.40;;;2.42;;
45792;SDS011;31495;42.740;22.908;2023-03-12T05:03:29;10.65;;;2.80;;
45792;SDS011;31495;42.740;22.908;2023-03-12T05:04:28;5.68;;;2.78;;
45792;SDS011;31495;42.740;22.908;2023-03-12T05:05:28;6.35;;;3.05;;
45792;SDS011;31495;42.740;22.908;2023-03-12T05:06:27;6.00;;;3.15;;
45792;SDS011;31495;42.740;22.908;2023-03-12T05:07:27;6.57;;;2.92;;
45792;SDS011;31495;42.740;22.908;2023-03-12T05:08:27;8.82;;;2.97;;
45792;SDS011;31495;42.740;22.908;2023-03-12T05:09:26;6.45;;;3.28;;
45792;SDS011;31495;42.740;22.908;2023-03-12T05:10:25;6.68;;;2.97;;
45792;SDS011;31495;42.740;22.908;2023-03-12T05:11:25;14.43;;;3.70;;
45792;SDS011;31495;42.740;22.908;2023-03-12T05:12:24;8.63;;;2.92;;
45792;SDS011;31495;42.740;22.908;2023-03-12T05:13:24;5.90;;;3.72;;
45792;SDS011;31495;42.740;22.908;2023-03-12T05:14:23;6.20;;;2.80;;
45792;SDS011;31495;42.740;22.908;2023-03-12T05:15:23;8.45;;;3.78;;
45792;SDS011;31495;42.740;22.908;2023-03-12T05:16:22;6.95;;;3.38;;
45792;SDS011;31495;42.740;22.908;2023-03-12T05:17:21;7.18;;;3.25;;
45792;SDS011;31495;42.740;22.908;2023-03-12T05:18:21;6.30;;;2.97;;
45792;SDS011;31495;42.740;22.908;2023-03-12T05:19:21;14.13;;;4.68;;
45792;SDS011;31495;42.740;22.908;2023-03-12T05:20:20;14.00;;;7.15;;
45792;SDS011;31495;42.740;22.908;2023-03-12T05:21:20;6.65;;;3.65;;
45792;SDS011;31495;42.740;22.908;2023-03-12T05:22:19;11.32;;;5.28;;
45792;SDS011;31495;42.740;22.908;2023-03-12T05:23:19;6.50;;;3.00;;
45792;SDS011;31495;42.740;22.908;2023-03-12T05:24:18;8.35;;;3.17;;
45792;SDS011;31495;42.740;22.908;2023-03-12T05:25:20;5.95;;;3.10;;
45792;SDS011;31495;42.740;22.908;2023-03-12T05:26:29;7.57;;;2.72;;
45792;SDS011;31495;42.740;22.908;2023-03-12T05:27:30;8.37;;;3.47;;
45792;SDS011;31495;42.740;22.908;2023-03-12T05:28:31;9.45;;;4.55;;
45792;SDS011;31495;42.740;22.908;2023-03-12T05:29:31;17.42;;;5.57;;
45792;SDS011;31495;42.740;22.908;2023-03-12T05:30:33;16.00;;;6.55;;
45792;SDS011;31495;42.740;22.908;2023-03-12T05:31:32;8.35;;;3.80;;
45792;SDS011;31495;42.740;22.908;2023-03-12T05:32:33;6.22;;;2.80;;
45792;SDS011;31495;42.740;22.908;2023-03-12T05:33:32;7.50;;;3.72;;
45792;SDS011;31495;42.740;22.908;2023-03-12T05:34:32;7.60;;;3.05;;
45792;SDS011;31495;42.740;22.908;2023-03-12T05:35:32;9.15;;;4.47;;
45792;SDS011;31495;42.740;22.908;2023-03-12T05:36:31;7.90;;;3.97;;
45792;SDS011;31495;42.740;22.908;2023-03-12T05:37:30;9.07;;;4.78;;
45792;SDS011;31495;42.740;22.908;2023-03-12T05:38:30;10.18;;;4.30;;
45792;SDS011;31495;42.740;22.908;2023-03-12T05:39:29;11.48;;;4.30;;
45792;SDS011;31495;42.740;22.908;2023-03-12T05:40:29;9.30;;;3.88;;
45792;SDS011;31495;42.740;22.908;2023-03-12T05:41:29;6.63;;;3.97;;
45792;SDS011;31495;42.740;22.908;2023-03-12T05:42:28;7.93;;;3.47;;
45792;SDS011;31495;42.740;22.908;2023-03-12T05:43:28;13.48;;;3.33;;
45792;SDS011;31495;42.740;22.908;2023-03-12T05:44:28;6.63;;;2.95;;
45792;SDS011;31495;42.740;22.908;2023-03-12T05:45:27;7.85;;;3.92;;
45792;SDS011;31495;42.740;22.908;2023-03-12T05:46:27;15.52;;;4.82;;
45792;SDS011;31495;42.740;22.908;2023-03-12T05:47:26;7.40;;;3.67;;
45792;SDS011;31495;42.740;22.908;2023-03-12T05:48:25;6.32;;;2.97;;
45792;SDS011;31495;42.740;22.908;2023-03-12T05:49:25;9.10;;;4.40;;
45792;SDS011;31495;42.740;22.908;2023-03-12T05:50:25;10.38;;;4.53;;
45792;SDS011;31495;42.740;22.908;2023-03-12T05:51:24;8.65;;;3.30;;
45792;SDS011;31495;42.740;22.908;2023-03-12T05:52:24;7.10;;;2.75;;
45792;SDS011;31495;42.740;22.908;2023-03-12T05:53:23;4.93;;;2.40;;
45792;SDS011;31495;42.740;22.908;2023-03-12T05:54:23;5.38;;;2.08;;
45792;SDS011;31495;42.740;22.908;2023-03-12T05:55:22;5.50;;;1.98;;
45792;SDS011;31495;42.740;22.908;2023-03-12T05:56:22;8.65;;;2.22;;
45792;SDS011;31495;42.740;22.908;2023-03-12T05:57:21;3.75;;;1.98;;
45792;SDS011;31495;42.740;22.908;2023-03-12T05:58:20;4.45;;;2.05;;
45792;SDS011;31495;42.740;22.908;2023-03-12T05:59:20;5.78;;;2.92;;
45792;SDS011;31495;42.740;22.908;2023-03-12T06:00:19;4.38;;;2.25;;
45792;SDS011;31495;42.740;22.908;2023-03-12T06:01:21;4.95;;;2.53;;
45792;SDS011;31495;42.740;22.908;2023-03-12T06:02:22;4.95;;;2.10;;
45792;SDS011;31495;42.740;22.908;2023-03-12T06:03:21;2.63;;;1.27;;
45792;SDS011;31495;42.740;22.908;2023-03-12T06:04:21;3.70;;;1.63;;
45792;SDS011;31495;42.740;22.908;2023-03-12T06:05:20;4.00;;;1.38;;
45792;SDS011;31495;42.740;22.908;2023-03-12T06:06:20;6.03;;;2.72;;
45792;SDS011;31495;42.740;22.908;2023-03-12T06:07:19;4.60;;;2.13;;
45792;SDS011;31495;42.740;22.908;2023-03-12T06:08:19;6.22;;;2.22;;
45792;SDS011;31495;42.740;22.908;2023-03-12T06:09:20;12.05;;;3.42;;